createdAt,value
2023-04-09T00:01:56.930Z,6.14
2023-04-09T00:04:24.142Z,6.13
2023-04-09T00:06:51.148Z,6.12
2023-04-09T00:09:18.099Z,6.06
2023-04-09T00:11:45.020Z,5.98
2023-04-09T00:14:11.923Z,5.99
2023-04-09T00:16:38.921Z,6.06
2023-04-09T00:19:06.195Z,6.11
2023-04-09T00:21:33.044Z,6.04
2023-04-09T00:23:59.958Z,6.10
2023-04-09T00:26:27.639Z,6.17
2023-04-09T00:28:56.630Z,6.03
2023-04-09T00:31:23.883Z,6.05
2023-04-09T00:33:50.953Z,5.94
2023-04-09T00:36:17.849Z,5.85
2023-04-09T00:38:45.636Z,5.90
2023-04-09T00:41:12.564Z,5.85
2023-04-09T00:43:39.483Z,5.85
2023-04-09T00:46:06.549Z,5.94
2023-04-09T00:48:33.783Z,6.05
2023-04-09T00:51:01.052Z,5.92
2023-04-09T00:53:28.300Z,5.94
2023-04-09T00:55:56.180Z,6.07
2023-04-09T00:58:23.131Z,5.95
2023-04-09T01:00:50.114Z,5.91
2023-04-09T01:03:17.362Z,5.84
2023-04-09T01:05:58.869Z,5.96
2023-04-09T01:08:40.729Z,5.99
2023-04-09T01:11:29.521Z,5.98
2023-04-09T01:14:09.009Z,6.01
2023-04-09T01:16:38.252Z,5.95
2023-04-09T01:19:41.709Z,6.10
2023-04-09T01:22:22.295Z,6.11
2023-04-09T01:25:04.483Z,5.91
2023-04-09T01:27:58.543Z,5.95
2023-04-09T01:30:27.589Z,5.94
2023-04-09T01:32:55.906Z,5.83
2023-04-09T01:35:23.474Z,5.90
2023-04-09T01:37:51.739Z,5.88
2023-04-09T01:40:18.928Z,5.87
2023-04-09T01:42:47.416Z,5.83
2023-04-09T01:45:16.158Z,5.82
2023-04-09T01:47:43.451Z,5.81
2023-04-09T01:50:11.064Z,5.79
2023-04-09T01:52:38.446Z,5.87
2023-04-09T01:55:05.955Z,5.92
2023-04-09T01:57:32.881Z,5.92
2023-04-09T01:59:59.979Z,5.86
2023-04-09T02:02:38.757Z,5.82
2023-04-09T02:05:10.946Z,5.89
2023-04-09T02:07:43.147Z,5.85
2023-04-09T02:10:12.295Z,5.85
2023-04-09T02:12:43.068Z,5.91
2023-04-09T02:15:11.035Z,5.97
2023-04-09T02:17:38.118Z,5.93
2023-04-09T02:20:05.526Z,5.90
2023-04-09T02:22:32.448Z,5.87
2023-04-09T02:24:59.624Z,5.83
2023-04-09T02:27:26.622Z,5.75
2023-04-09T02:29:53.596Z,5.81
2023-04-09T02:32:20.600Z,5.77
2023-04-09T02:34:47.538Z,5.66
2023-04-09T02:37:14.434Z,5.71
2023-04-09T02:39:41.421Z,5.67
2023-04-09T02:42:08.498Z,5.73
2023-04-09T02:44:35.621Z,5.65
2023-04-09T02:47:02.587Z,5.47
2023-04-09T02:49:29.702Z,5.36
2023-04-09T02:51:56.622Z,5.34
2023-04-09T02:54:23.555Z,5.29
2023-04-09T02:56:50.608Z,5.27
2023-04-09T02:59:17.646Z,5.29
2023-04-09T03:01:44.815Z,5.26
2023-04-09T03:04:11.890Z,5.27
2023-04-09T03:06:38.932Z,5.29
2023-04-09T03:09:05.911Z,5.28
2023-04-09T03:11:32.895Z,5.28
2023-04-09T03:13:59.769Z,5.24
2023-04-09T03:16:26.933Z,5.28
2023-04-09T03:18:54.161Z,5.31
2023-04-09T03:21:21.338Z,5.29
2023-04-09T03:23:50.223Z,5.32
2023-04-09T03:26:17.133Z,5.41
2023-04-09T03:28:48.046Z,5.47
2023-04-09T03:31:15.060Z,5.54
2023-04-09T03:33:43.342Z,5.57
2023-04-09T03:36:11.539Z,5.62
2023-04-09T03:38:48.893Z,5.56
2023-04-09T03:41:26.919Z,5.59
2023-04-09T03:43:54.890Z,5.52
2023-04-09T03:46:26.210Z,5.55
2023-04-09T03:48:53.450Z,5.51
2023-04-09T03:51:21.110Z,5.53
2023-04-09T03:53:54.199Z,5.55
2023-04-09T03:56:21.443Z,5.45
2023-04-09T03:58:49.906Z,5.39
2023-04-09T04:01:18.347Z,5.36
2023-04-09T04:03:54.357Z,5.40
2023-04-09T04:06:23.848Z,5.29
2023-04-09T04:09:11.097Z,5.15
2023-04-09T04:11:46.489Z,5.15
2023-04-09T04:14:13.686Z,5.18
2023-04-09T04:16:43.185Z,5.17
2023-04-09T04:19:11.919Z,5.12
2023-04-09T04:21:44.769Z,5.15
2023-04-09T04:24:11.715Z,5.19
2023-04-09T04:26:40.455Z,5.26
2023-04-09T04:29:08.182Z,5.30
2023-04-09T04:31:55.606Z,5.33
2023-04-09T04:34:25.376Z,5.29
2023-04-09T04:37:00.648Z,5.27
2023-04-09T04:39:31.676Z,5.29
2023-04-09T04:42:06.256Z,5.30
2023-04-09T04:44:33.415Z,5.44
2023-04-09T04:47:11.196Z,5.46
2023-04-09T04:49:38.163Z,5.57
2023-04-09T04:52:07.962Z,5.93
2023-04-09T04:54:36.730Z,6.31
2023-04-09T04:57:03.760Z,6.68
2023-04-09T04:59:40.670Z,6.92
2023-04-09T05:02:10.396Z,6.77
2023-04-09T05:04:56.233Z,6.51
2023-04-09T05:07:31.277Z,6.41
2023-04-09T05:09:58.732Z,6.44
2023-04-09T05:12:26.571Z,6.65
2023-04-09T05:14:53.889Z,6.65
2023-04-09T05:17:20.959Z,6.12
2023-04-09T05:19:52.953Z,5.85
2023-04-09T05:22:25.287Z,5.80
2023-04-09T05:24:52.764Z,5.71
2023-04-09T05:27:22.382Z,5.56
2023-04-09T05:29:51.359Z,5.55
2023-04-09T05:32:18.401Z,5.63
2023-04-09T05:34:45.374Z,5.73
2023-04-09T05:37:12.374Z,5.67
2023-04-09T05:39:39.914Z,5.63
2023-04-09T05:42:06.999Z,5.72
2023-04-09T05:44:40.690Z,5.75
2023-04-09T05:47:12.692Z,5.78
2023-04-09T05:49:50.588Z,5.87
2023-04-09T05:52:18.197Z,5.95
2023-04-09T05:54:45.233Z,6.02
2023-04-09T05:57:15.745Z,6.17
2023-04-09T05:59:47.606Z,6.41
2023-04-09T06:02:15.508Z,6.30
2023-04-09T06:04:42.575Z,6.35
2023-04-09T06:07:10.293Z,6.44
2023-04-09T06:09:37.486Z,6.79
2023-04-09T06:12:04.858Z,7.17
2023-04-09T06:14:33.500Z,7.32
2023-04-09T06:17:02.786Z,7.23
2023-04-09T06:19:30.251Z,7.28
2023-04-09T06:21:57.409Z,7.12
2023-04-09T06:24:24.532Z,7.09
2023-04-09T06:26:51.688Z,6.98
2023-04-09T06:29:18.996Z,6.89
2023-04-09T06:31:46.746Z,6.85
2023-04-09T06:34:13.810Z,7.17
2023-04-09T06:36:40.865Z,7.49
2023-04-09T06:39:08.225Z,7.41
2023-04-09T06:41:35.714Z,7.57
2023-04-09T06:44:11.206Z,7.97
2023-04-09T06:46:38.599Z,7.70
2023-04-09T06:49:06.339Z,7.18
2023-04-09T06:51:33.435Z,7.08
2023-04-09T06:54:00.772Z,7.29
2023-04-09T06:56:27.984Z,7.65
2023-04-09T06:58:55.114Z,7.99
2023-04-09T07:01:22.392Z,7.63
2023-04-09T07:03:49.667Z,7.73
2023-04-09T07:06:17.072Z,7.69
2023-04-09T07:08:44.125Z,7.63
2023-04-09T07:11:11.409Z,8.04
2023-04-09T07:13:38.571Z,8.40
2023-04-09T07:16:06.198Z,7.94
2023-04-09T07:18:33.208Z,7.77
2023-04-09T07:21:00.415Z,7.93
2023-04-09T07:23:27.563Z,8.14
2023-04-09T07:25:54.609Z,8.48
2023-04-09T07:28:21.672Z,8.50
2023-04-09T07:30:48.770Z,8.11
2023-04-09T07:33:16.042Z,8.47
2023-04-09T07:35:43.327Z,8.87
2023-04-09T07:38:10.541Z,9.01
2023-04-09T07:40:37.693Z,8.92
2023-04-09T07:43:14.861Z,8.51
2023-04-09T07:45:42.591Z,8.40
2023-04-09T07:48:10.961Z,8.73
2023-04-09T07:50:38.743Z,8.24
2023-04-09T07:53:05.930Z,7.89
2023-04-09T07:55:33.144Z,8.19
2023-04-09T07:58:00.565Z,8.39
2023-04-09T08:00:27.612Z,8.66
2023-04-09T08:02:55.083Z,8.34
2023-04-09T08:05:22.508Z,8.27
2023-04-09T08:07:52.276Z,8.46
2023-04-09T08:10:20.721Z,8.56
2023-04-09T08:12:50.000Z,8.27
2023-04-09T08:15:17.324Z,8.32
2023-04-09T08:17:44.692Z,8.59
2023-04-09T08:20:13.200Z,8.25
2023-04-09T08:22:41.694Z,8.26
2023-04-09T08:25:11.890Z,8.35
2023-04-09T08:27:40.160Z,8.57
2023-04-09T08:30:08.111Z,8.40
2023-04-09T08:32:35.979Z,8.59
2023-04-09T08:35:03.471Z,8.84
2023-04-09T08:37:30.857Z,9.48
2023-04-09T08:39:57.900Z,9.83
2023-04-09T08:42:26.419Z,10.02
2023-04-09T08:44:53.845Z,9.02
2023-04-09T08:47:22.144Z,8.58
2023-04-09T08:49:50.594Z,8.52
2023-04-09T08:52:22.228Z,8.48
2023-04-09T08:54:51.898Z,8.55
2023-04-09T08:57:19.003Z,8.46
2023-04-09T08:59:46.933Z,8.36
2023-04-09T09:02:14.782Z,8.54
2023-04-09T09:04:49.676Z,8.69
2023-04-09T09:07:18.051Z,8.70
2023-04-09T09:09:57.256Z,8.72
2023-04-09T09:12:38.957Z,8.90
2023-04-09T09:15:29.654Z,9.32
2023-04-09T09:18:08.207Z,9.34
2023-04-09T09:20:38.427Z,9.95
2023-04-09T09:23:06.294Z,10.32
2023-04-09T09:25:39.338Z,10.40
2023-04-09T09:28:15.216Z,10.39
2023-04-09T09:30:43.940Z,10.46
2023-04-09T09:33:12.445Z,10.46
2023-04-09T09:35:54.607Z,9.50
2023-04-09T09:38:22.159Z,9.47
2023-04-09T09:40:51.671Z,9.48
2023-04-09T09:43:18.899Z,9.89
2023-04-09T09:45:48.041Z,9.83
2023-04-09T09:48:16.282Z,10.14
2023-04-09T09:50:49.474Z,10.42
2023-04-09T09:53:42.008Z,10.04
2023-04-09T09:56:22.680Z,9.79
2023-04-09T09:59:06.000Z,10.03
2023-04-09T10:01:44.319Z,9.57
2023-04-09T10:04:16.308Z,9.42
2023-04-09T10:06:50.582Z,9.86
2023-04-09T10:09:23.749Z,9.57
2023-04-09T10:11:50.866Z,9.57
2023-04-09T10:14:19.232Z,9.36
2023-04-09T10:16:47.133Z,9.64
2023-04-09T10:19:15.492Z,9.83
2023-04-09T10:21:55.033Z,9.78
2023-04-09T10:24:23.089Z,10.20
2023-04-09T10:26:54.864Z,10.27
2023-04-09T10:29:28.830Z,10.60
2023-04-09T10:32:09.420Z,10.32
2023-04-09T10:34:43.103Z,10.61
2023-04-09T10:37:15.457Z,10.28
2023-04-09T10:39:48.672Z,10.15
2023-04-09T10:42:24.928Z,9.83
2023-04-09T10:45:10.069Z,9.65
2023-04-09T10:47:39.371Z,9.67
2023-04-09T10:50:45.136Z,10.07
2023-04-09T10:53:28.036Z,9.98
2023-04-09T10:55:56.789Z,10.41
2023-04-09T10:58:24.048Z,10.27
2023-04-09T11:00:54.084Z,10.14
2023-04-09T11:03:22.065Z,10.68
2023-04-09T11:05:59.510Z,10.88
2023-04-09T11:08:34.649Z,10.94
2023-04-09T11:11:06.204Z,11.03
2023-04-09T11:13:34.723Z,11.01
2023-04-09T11:16:24.679Z,11.02
2023-04-09T11:18:56.437Z,10.90
2023-04-09T11:21:29.101Z,11.62
2023-04-09T11:23:57.852Z,11.19
2023-04-09T11:26:36.084Z,10.32
2023-04-09T11:29:10.501Z,10.08
2023-04-09T11:31:37.799Z,10.15
2023-04-09T11:34:05.096Z,10.42
2023-04-09T11:36:35.104Z,10.69
2023-04-09T11:39:02.854Z,10.58
2023-04-09T11:41:37.453Z,10.56
2023-04-09T11:44:05.414Z,10.13
2023-04-09T11:46:39.580Z,10.39
2023-04-09T11:49:07.272Z,10.42
2023-04-09T11:51:35.855Z,10.30
2023-04-09T11:54:25.991Z,10.42
2023-04-09T11:56:56.258Z,10.47
2023-04-09T11:59:23.266Z,10.49
2023-04-09T12:01:51.593Z,10.72
2023-04-09T12:04:22.204Z,10.37
2023-04-09T12:06:49.689Z,10.37
2023-04-09T12:09:17.018Z,10.50
2023-04-09T12:11:44.922Z,10.68
2023-04-09T12:14:16.671Z,10.07
2023-04-09T12:16:45.103Z,10.22
2023-04-09T12:19:13.397Z,10.64
2023-04-09T12:21:51.346Z,10.82
2023-04-09T12:24:19.523Z,11.11
2023-04-09T12:26:47.105Z,10.59
2023-04-09T12:29:16.649Z,10.45
2023-04-09T12:31:44.182Z,10.46
2023-04-09T12:34:11.628Z,10.04
2023-04-09T12:36:39.892Z,10.26
2023-04-09T12:39:07.392Z,9.95
2023-04-09T12:41:34.524Z,10.11
2023-04-09T12:44:01.737Z,10.22
2023-04-09T12:46:28.894Z,10.14
2023-04-09T12:48:56.085Z,10.23
2023-04-09T12:51:23.299Z,10.09
2023-04-09T12:53:50.724Z,10.09
2023-04-09T12:56:17.702Z,9.98
2023-04-09T12:58:44.657Z,9.81
2023-04-09T13:01:11.800Z,10.25
2023-04-09T13:03:50.296Z,10.43
2023-04-09T13:06:18.525Z,10.77
2023-04-09T13:08:45.528Z,10.41
2023-04-09T13:11:12.555Z,10.26
2023-04-09T13:13:42.123Z,10.25
2023-04-09T13:16:09.510Z,10.59
2023-04-09T13:18:36.525Z,10.42
2023-04-09T13:21:03.666Z,10.61
2023-04-09T13:23:30.738Z,10.85
2023-04-09T13:25:58.912Z,10.81
2023-04-09T13:28:26.437Z,10.95
2023-04-09T13:30:53.620Z,10.98
2023-04-09T13:33:20.800Z,11.27
2023-04-09T13:35:47.896Z,10.84
2023-04-09T13:38:14.902Z,10.99
2023-04-09T13:40:41.959Z,11.22
2023-04-09T13:43:08.898Z,11.39
2023-04-09T13:45:35.957Z,11.29
2023-04-09T13:48:02.921Z,10.84
2023-04-09T13:50:30.024Z,10.46
2023-04-09T13:52:56.939Z,10.54
2023-04-09T13:55:23.953Z,10.49
2023-04-09T13:57:50.948Z,10.52
2023-04-09T14:00:20.127Z,10.87
2023-04-09T14:02:48.302Z,10.58
2023-04-09T14:05:15.403Z,10.86
2023-04-09T14:07:42.311Z,11.00
2023-04-09T14:10:09.728Z,10.78
2023-04-09T14:12:36.788Z,11.14
2023-04-09T14:15:04.258Z,11.06
2023-04-09T14:17:31.312Z,11.02
2023-04-09T14:19:59.291Z,11.18
2023-04-09T14:22:27.726Z,10.83
2023-04-09T14:24:54.741Z,10.92
2023-04-09T14:27:21.714Z,11.18
2023-04-09T14:29:48.649Z,11.09
2023-04-09T14:32:15.659Z,11.36
2023-04-09T14:34:42.964Z,10.81
2023-04-09T14:37:09.860Z,10.62
2023-04-09T14:39:36.887Z,10.56
2023-04-09T14:42:04.168Z,10.50
2023-04-09T14:44:31.927Z,10.70
2023-04-09T14:47:00.161Z,10.66
2023-04-09T14:49:27.433Z,10.69
2023-04-09T14:51:54.795Z,10.78
2023-04-09T14:54:21.737Z,10.80
2023-04-09T14:56:48.807Z,10.92
2023-04-09T14:59:15.819Z,10.71
2023-04-09T15:01:42.897Z,10.82
2023-04-09T15:04:10.223Z,11.08
2023-04-09T15:06:37.480Z,11.38
2023-04-09T15:09:04.504Z,11.23
2023-04-09T15:11:31.531Z,11.14
2023-04-09T15:13:58.579Z,11.00
2023-04-09T15:16:27.301Z,11.29
2023-04-09T15:18:57.877Z,11.08
2023-04-09T15:21:24.884Z,10.84
2023-04-09T15:23:52.271Z,10.77
2023-04-09T15:26:19.861Z,10.67
2023-04-09T15:28:46.857Z,10.40
2023-04-09T15:31:14.015Z,10.56
2023-04-09T15:33:44.059Z,10.43
2023-04-09T15:36:11.976Z,10.42
2023-04-09T15:38:39.118Z,10.36
2023-04-09T15:41:06.313Z,10.28
2023-04-09T15:43:33.255Z,10.17
2023-04-09T15:46:00.291Z,10.08
2023-04-09T15:48:27.250Z,10.07
2023-04-09T15:50:54.266Z,9.92
2023-04-09T15:53:24.050Z,9.63
2023-04-09T15:55:51.027Z,9.65
2023-04-09T15:58:17.894Z,9.72
2023-04-09T16:00:44.856Z,9.78
2023-04-09T16:03:11.905Z,9.78
2023-04-09T16:05:39.353Z,9.65
2023-04-09T16:08:06.499Z,9.60
2023-04-09T16:10:33.789Z,9.52
2023-04-09T16:13:00.844Z,9.52
2023-04-09T16:15:29.055Z,9.51
2023-04-09T16:17:57.289Z,9.60
2023-04-09T16:20:24.353Z,9.58
2023-04-09T16:22:51.256Z,9.70
2023-04-09T16:25:18.188Z,9.70
2023-04-09T16:27:45.180Z,9.78
2023-04-09T16:30:12.558Z,9.67
2023-04-09T16:32:39.596Z,9.73
2023-04-09T16:35:06.904Z,9.85
2023-04-09T16:37:35.313Z,9.89
2023-04-09T16:40:02.321Z,9.95
2023-04-09T16:42:30.561Z,9.98
2023-04-09T16:44:57.539Z,9.96
2023-04-09T16:47:24.582Z,10.01
2023-04-09T16:49:51.739Z,9.91
2023-04-09T16:52:18.910Z,9.90
2023-04-09T16:54:46.088Z,9.86
2023-04-09T16:57:13.006Z,9.84
2023-04-09T16:59:42.678Z,9.87
2023-04-09T17:02:09.819Z,9.69
2023-04-09T17:04:38.324Z,9.64
2023-04-09T17:07:05.312Z,9.57
2023-04-09T17:09:32.296Z,9.56
2023-04-09T17:11:59.264Z,9.55
2023-04-09T17:14:26.640Z,9.51
2023-04-09T17:16:54.125Z,9.50
2023-04-09T17:19:21.200Z,9.43
2023-04-09T17:21:48.148Z,9.37
2023-04-09T17:24:15.178Z,9.36
2023-04-09T17:26:42.416Z,9.25
2023-04-09T17:29:09.362Z,9.21
2023-04-09T17:31:36.553Z,9.27
2023-04-09T17:34:05.262Z,9.17
2023-04-09T17:36:32.215Z,9.12
2023-04-09T17:38:59.124Z,9.15
2023-04-09T17:41:26.519Z,9.11
2023-04-09T17:43:54.267Z,9.09
2023-04-09T17:46:21.299Z,9.05
2023-04-09T17:48:48.315Z,9.07
2023-04-09T17:51:18.632Z,9.07
2023-04-09T17:53:46.281Z,9.00
2023-04-09T17:56:17.214Z,8.97
2023-04-09T17:58:45.010Z,8.92
2023-04-09T18:01:13.218Z,8.95
2023-04-09T18:03:43.949Z,8.94
2023-04-09T18:06:11.774Z,8.95
2023-04-09T18:08:38.838Z,8.94
2023-04-09T18:11:11.921Z,9.01
2023-04-09T18:13:40.605Z,9.18
2023-04-09T18:16:12.446Z,9.08
2023-04-09T18:18:39.908Z,9.05
2023-04-09T18:21:07.143Z,9.06
2023-04-09T18:23:34.132Z,9.11
2023-04-09T18:26:01.325Z,9.07
2023-04-09T18:28:28.464Z,9.04
2023-04-09T18:30:55.535Z,9.05
2023-04-09T18:33:23.225Z,8.97
2023-04-09T18:35:50.318Z,8.95
2023-04-09T18:38:18.043Z,8.95
2023-04-09T18:40:46.036Z,8.98
2023-04-09T18:43:12.997Z,9.04
2023-04-09T18:45:39.942Z,8.85
2023-04-09T18:48:08.467Z,8.87
2023-04-09T18:50:35.750Z,8.76
2023-04-09T18:53:03.791Z,8.68
2023-04-09T18:55:30.966Z,8.69
2023-04-09T18:57:58.614Z,8.73
2023-04-09T19:00:25.746Z,8.65
2023-04-09T19:02:53.086Z,8.52
2023-04-09T19:05:22.476Z,8.37
2023-04-09T19:07:49.392Z,8.30
2023-04-09T19:10:16.553Z,8.42
2023-04-09T19:12:49.977Z,8.24
2023-04-09T19:15:17.117Z,8.15
2023-04-09T19:17:44.026Z,8.10
2023-04-09T19:20:11.574Z,7.92
2023-04-09T19:22:39.047Z,7.94
2023-04-09T19:25:07.841Z,7.98
2023-04-09T19:27:34.772Z,8.07
2023-04-09T19:30:01.840Z,8.02
2023-04-09T19:32:28.980Z,8.00
2023-04-09T19:34:56.056Z,8.00
2023-04-09T19:37:27.652Z,7.93
2023-04-09T19:39:58.896Z,7.85
2023-04-09T19:42:28.866Z,7.79
2023-04-09T19:44:55.816Z,7.82
2023-04-09T19:47:22.783Z,7.71
2023-04-09T19:49:49.786Z,7.67
2023-04-09T19:52:16.770Z,7.61
2023-04-09T19:54:43.831Z,7.67
2023-04-09T19:57:11.015Z,7.64
2023-04-09T19:59:40.101Z,7.55
2023-04-09T20:02:07.634Z,7.50
2023-04-09T20:04:34.813Z,7.44
2023-04-09T20:07:01.761Z,7.38
2023-04-09T20:09:29.323Z,7.41
2023-04-09T20:11:58.583Z,7.38
2023-04-09T20:14:25.685Z,7.38
2023-04-09T20:16:52.825Z,7.32
2023-04-09T20:19:19.892Z,7.34
2023-04-09T20:21:47.180Z,7.29
2023-04-09T20:24:14.102Z,7.22
2023-04-09T20:26:41.233Z,7.26
2023-04-09T20:29:10.685Z,7.19
2023-04-09T20:31:39.007Z,7.25
2023-04-09T20:34:06.087Z,7.18
2023-04-09T20:36:33.186Z,7.18
2023-04-09T20:39:00.216Z,7.16
2023-04-09T20:41:27.330Z,6.92
2023-04-09T20:43:54.257Z,7.04
2023-04-09T20:46:21.537Z,7.03
2023-04-09T20:48:48.466Z,7.02
2023-04-09T20:51:15.963Z,6.93
2023-04-09T20:53:43.076Z,6.92
2023-04-09T20:56:10.090Z,6.86
2023-04-09T20:58:37.082Z,6.83
2023-04-09T21:01:09.620Z,6.77
2023-04-09T21:03:38.824Z,6.69
2023-04-09T21:06:07.372Z,6.71
2023-04-09T21:08:34.821Z,6.73
2023-04-09T21:11:02.396Z,6.59
2023-04-09T21:13:30.049Z,6.58
2023-04-09T21:15:57.954Z,6.52
2023-04-09T21:18:24.923Z,6.44
2023-04-09T21:20:51.905Z,6.38
2023-04-09T21:23:18.899Z,6.29
2023-04-09T21:25:45.896Z,6.24
2023-04-09T21:28:12.785Z,6.18
2023-04-09T21:30:39.827Z,6.19
2023-04-09T21:33:08.402Z,6.03
2023-04-09T21:35:36.682Z,6.01
2023-04-09T21:38:03.915Z,5.93
2023-04-09T21:40:31.490Z,5.78
2023-04-09T21:42:58.783Z,5.63
2023-04-09T21:45:26.159Z,5.53
2023-04-09T21:47:53.164Z,5.57
2023-04-09T21:50:20.285Z,5.58
2023-04-09T21:52:47.567Z,5.66
2023-04-09T21:55:14.661Z,5.79
2023-04-09T21:57:41.659Z,5.80
2023-04-09T22:00:11.201Z,5.75
2023-04-09T22:02:39.527Z,5.63
2023-04-09T22:05:06.798Z,5.45
2023-04-09T22:07:33.945Z,5.33
2023-04-09T22:10:00.956Z,5.29
2023-04-09T22:12:27.992Z,5.18
2023-04-09T22:14:55.701Z,5.11
2023-04-09T22:17:22.730Z,5.15
2023-04-09T22:19:51.244Z,5.28
2023-04-09T22:22:18.298Z,5.36
2023-04-09T22:24:45.236Z,5.28
2023-04-09T22:27:13.232Z,5.14
2023-04-09T22:29:41.677Z,5.14
2023-04-09T22:32:09.562Z,5.17
2023-04-09T22:34:36.550Z,5.23
2023-04-09T22:37:03.627Z,5.11
2023-04-09T22:39:31.283Z,5.27
2023-04-09T22:41:58.735Z,5.41
2023-04-09T22:44:25.918Z,5.56
2023-04-09T22:46:53.006Z,5.42
2023-04-09T22:49:20.107Z,5.24
2023-04-09T22:51:47.371Z,5.35
2023-04-09T22:54:14.294Z,5.45
2023-04-09T22:56:41.258Z,5.50
2023-04-09T22:59:08.238Z,5.40
2023-04-09T23:01:35.294Z,5.37
2023-04-09T23:04:02.253Z,5.26
2023-04-09T23:06:31.141Z,5.10
2023-04-09T23:09:00.043Z,5.08
2023-04-09T23:11:27.507Z,4.91
2023-04-09T23:13:59.896Z,5.12
2023-04-09T23:16:26.933Z,5.12
2023-04-09T23:18:54.052Z,5.02
2023-04-09T23:21:21.337Z,4.91
2023-04-09T23:23:48.365Z,4.74
2023-04-09T23:26:15.707Z,4.77
2023-04-09T23:28:42.621Z,4.79
2023-04-09T23:31:09.601Z,4.71
2023-04-09T23:33:36.503Z,4.73
2023-04-09T23:36:04.851Z,4.73
2023-04-09T23:38:31.853Z,4.71
2023-04-09T23:40:58.827Z,4.70
2023-04-09T23:43:25.855Z,4.67
2023-04-09T23:45:52.742Z,4.62
2023-04-09T23:48:21.390Z,4.70
2023-04-09T23:50:48.359Z,4.85
2023-04-09T23:53:16.348Z,4.76
2023-04-09T23:55:43.713Z,4.79
2023-04-09T23:58:10.613Z,4.82
